sensor_id;sensor_type;location;lat;lon;timestamp;P1;durP1;ratioP1;P2;durP2;ratioP2
28335;SDS011;15592;53.656;7.276;2022-07-29T00:01:16;1.05;;;1.00;;
28335;SDS011;15592;53.656;7.276;2022-07-29T00:03:41;1.02;;;1.02;;
28335;SDS011;15592;53.656;7.276;2022-07-29T00:06:07;1.42;;;1.10;;
28335;SDS011;15592;53.656;7.276;2022-07-29T00:08:33;1.55;;;1.45;;
28335;SDS011;15592;53.656;7.276;2022-07-29T00:10:58;1.30;;;1.20;;
28335;SDS011;15592;53.656;7.276;2022-07-29T00:13:24;1.27;;;1.15;;
28335;SDS011;15592;53.656;7.276;2022-07-29T00:15:50;1.20;;;1.10;;
28335;SDS011;15592;53.656;7.276;2022-07-29T00:18:15;1.30;;;1.20;;
28335;SDS011;15592;53.656;7.276;2022-07-29T00:20:41;1.00;;;1.00;;
28335;SDS011;15592;53.656;7.276;2022-07-29T00:23:06;1.65;;;1.27;;
28335;SDS011;15592;53.656;7.276;2022-07-29T00:25:32;1.20;;;1.05;;
28335;SDS011;15592;53.656;7.276;2022-07-29T00:27:57;1.52;;;1.30;;
28335;SDS011;15592;53.656;7.276;2022-07-29T00:30:23;1.10;;;1.00;;
28335;SDS011;15592;53.656;7.276;2022-07-29T00:32:49;1.42;;;1.13;;
28335;SDS011;15592;53.656;7.276;2022-07-29T00:35:14;2.58;;;1.27;;
28335;SDS011;15592;53.656;7.276;2022-07-29T00:37:58;2.80;;;1.45;;
28335;SDS011;15592;53.656;7.276;2022-07-29T00:40:24;1.45;;;1.30;;
28335;SDS011;15592;53.656;7.276;2022-07-29T00:42:50;1.70;;;1.20;;
28335;SDS011;15592;53.656;7.276;2022-07-29T00:45:16;1.80;;;1.50;;
28335;SDS011;15592;53.656;7.276;2022-07-29T00:47:42;1.90;;;1.60;;
28335;SDS011;15592;53.656;7.276;2022-07-29T00:50:09;2.95;;;1.77;;
28335;SDS011;15592;53.656;7.276;2022-07-29T00:52:37;1.63;;;1.30;;
28335;SDS011;15592;53.656;7.276;2022-07-29T00:55:04;1.63;;;1.35;;
28335;SDS011;15592;53.656;7.276;2022-07-29T00:57:31;1.52;;;1.30;;
28335;SDS011;15592;53.656;7.276;2022-07-29T00:59:58;2.75;;;1.40;;
28335;SDS011;15592;53.656;7.276;2022-07-29T01:02:23;1.67;;;1.27;;
28335;SDS011;15592;53.656;7.276;2022-07-29T01:04:49;1.83;;;1.40;;
28335;SDS011;15592;53.656;7.276;2022-07-29T01:07:15;4.95;;;1.50;;
28335;SDS011;15592;53.656;7.276;2022-07-29T01:09:42;1.80;;;1.40;;
28335;SDS011;15592;53.656;7.276;2022-07-29T01:12:09;1.50;;;1.40;;
28335;SDS011;15592;53.656;7.276;2022-07-29T01:14:37;2.53;;;1.50;;
28335;SDS011;15592;53.656;7.276;2022-07-29T01:22:36;1.25;;;1.10;;
28335;SDS011;15592;53.656;7.276;2022-07-29T01:31:05;2.03;;;1.70;;
28335;SDS011;15592;53.656;7.276;2022-07-29T01:33:34;2.40;;;1.55;;
28335;SDS011;15592;53.656;7.276;2022-07-29T01:36:30;2.28;;;1.70;;
28335;SDS011;15592;53.656;7.276;2022-07-29T01:39:12;2.17;;;1.48;;
28335;SDS011;15592;53.656;7.276;2022-07-29T01:41:48;2.17;;;1.45;;
28335;SDS011;15592;53.656;7.276;2022-07-29T01:44:25;1.40;;;1.30;;
28335;SDS011;15592;53.656;7.276;2022-07-29T01:46:57;1.98;;;1.55;;
28335;SDS011;15592;53.656;7.276;2022-07-29T01:49:29;1.75;;;1.27;;
28335;SDS011;15592;53.656;7.276;2022-07-29T01:52:02;1.73;;;1.60;;
28335;SDS011;15592;53.656;7.276;2022-07-29T01:57:02;2.38;;;1.25;;
28335;SDS011;15592;53.656;7.276;2022-07-29T01:59:29;2.10;;;1.35;;
28335;SDS011;15592;53.656;7.276;2022-07-29T02:01:58;2.33;;;1.25;;
28335;SDS011;15592;53.656;7.276;2022-07-29T02:04:25;2.00;;;1.48;;
28335;SDS011;15592;53.656;7.276;2022-07-29T02:06:54;1.80;;;1.45;;
28335;SDS011;15592;53.656;7.276;2022-07-29T02:09:25;1.42;;;1.33;;
28335;SDS011;15592;53.656;7.276;2022-07-29T02:11:52;2.60;;;1.45;;
28335;SDS011;15592;53.656;7.276;2022-07-29T02:14:20;3.67;;;1.98;;
28335;SDS011;15592;53.656;7.276;2022-07-29T02:16:48;2.63;;;1.88;;
28335;SDS011;15592;53.656;7.276;2022-07-29T02:19:18;3.28;;;1.88;;
28335;SDS011;15592;53.656;7.276;2022-07-29T02:21:46;2.95;;;1.50;;
28335;SDS011;15592;53.656;7.276;2022-07-29T02:24:12;2.80;;;1.50;;
28335;SDS011;15592;53.656;7.276;2022-07-29T02:26:41;3.40;;;1.75;;
28335;SDS011;15592;53.656;7.276;2022-07-29T02:29:08;1.88;;;1.67;;
28335;SDS011;15592;53.656;7.276;2022-07-29T02:31:35;2.88;;;1.95;;
28335;SDS011;15592;53.656;7.276;2022-07-29T02:34:03;1.70;;;1.45;;
28335;SDS011;15592;53.656;7.276;2022-07-29T02:36:32;1.85;;;1.50;;
28335;SDS011;15592;53.656;7.276;2022-07-29T02:38:59;2.20;;;1.70;;
28335;SDS011;15592;53.656;7.276;2022-07-29T02:41:38;2.03;;;1.50;;
28335;SDS011;15592;53.656;7.276;2022-07-29T02:46:37;1.35;;;1.25;;
28335;SDS011;15592;53.656;7.276;2022-07-29T02:54:47;2.05;;;1.42;;
28335;SDS011;15592;53.656;7.276;2022-07-29T02:57:28;2.67;;;1.60;;
28335;SDS011;15592;53.656;7.276;2022-07-29T02:59:54;1.40;;;1.30;;
28335;SDS011;15592;53.656;7.276;2022-07-29T03:02:24;2.55;;;1.80;;
28335;SDS011;15592;53.656;7.276;2022-07-29T03:04:52;1.92;;;1.40;;
28335;SDS011;15592;53.656;7.276;2022-07-29T03:07:20;1.35;;;1.20;;
28335;SDS011;15592;53.656;7.276;2022-07-29T03:09:47;1.40;;;1.30;;
28335;SDS011;15592;53.656;7.276;2022-07-29T03:12:15;1.77;;;1.52;;
28335;SDS011;15592;53.656;7.276;2022-07-29T03:14:42;1.52;;;1.42;;
28335;SDS011;15592;53.656;7.276;2022-07-29T03:17:09;1.40;;;1.30;;
28335;SDS011;15592;53.656;7.276;2022-07-29T03:19:34;2.30;;;1.42;;
28335;SDS011;15592;53.656;7.276;2022-07-29T03:22:00;1.95;;;1.13;;
28335;SDS011;15592;53.656;7.276;2022-07-29T03:24:31;2.35;;;1.60;;
28335;SDS011;15592;53.656;7.276;2022-07-29T03:26:58;2.22;;;1.77;;
28335;SDS011;15592;53.656;7.276;2022-07-29T03:29:24;1.42;;;1.33;;
28335;SDS011;15592;53.656;7.276;2022-07-29T03:31:51;1.30;;;1.20;;
28335;SDS011;15592;53.656;7.276;2022-07-29T03:34:17;2.22;;;1.52;;
28335;SDS011;15592;53.656;7.276;2022-07-29T03:36:42;1.55;;;1.38;;
28335;SDS011;15592;53.656;7.276;2022-07-29T03:39:08;2.65;;;1.27;;
28335;SDS011;15592;53.656;7.276;2022-07-29T03:41:36;1.80;;;1.45;;
28335;SDS011;15592;53.656;7.276;2022-07-29T03:44:04;2.22;;;1.50;;
28335;SDS011;15592;53.656;7.276;2022-07-29T03:46:32;1.85;;;1.30;;
28335;SDS011;15592;53.656;7.276;2022-07-29T03:49:00;1.83;;;1.55;;
28335;SDS011;15592;53.656;7.276;2022-07-29T03:51:28;1.33;;;1.17;;
28335;SDS011;15592;53.656;7.276;2022-07-29T03:53:54;2.25;;;1.45;;
28335;SDS011;15592;53.656;7.276;2022-07-29T03:56:21;1.70;;;1.30;;
28335;SDS011;15592;53.656;7.276;2022-07-29T03:58:48;1.42;;;1.33;;
28335;SDS011;15592;53.656;7.276;2022-07-29T04:01:16;2.43;;;1.60;;
28335;SDS011;15592;53.656;7.276;2022-07-29T04:03:43;1.48;;;1.38;;
28335;SDS011;15592;53.656;7.276;2022-07-29T04:06:10;2.03;;;1.48;;
28335;SDS011;15592;53.656;7.276;2022-07-29T04:08:36;2.10;;;1.55;;
28335;SDS011;15592;53.656;7.276;2022-07-29T04:11:02;1.58;;;1.48;;
28335;SDS011;15592;53.656;7.276;2022-07-29T04:13:29;2.13;;;1.45;;
28335;SDS011;15592;53.656;7.276;2022-07-29T04:15:56;1.45;;;1.20;;
28335;SDS011;15592;53.656;7.276;2022-07-29T04:18:21;1.55;;;1.38;;
28335;SDS011;15592;53.656;7.276;2022-07-29T04:20:47;2.00;;;1.35;;
28335;SDS011;15592;53.656;7.276;2022-07-29T04:23:13;1.40;;;1.30;;
28335;SDS011;15592;53.656;7.276;2022-07-29T04:25:39;1.30;;;1.20;;
28335;SDS011;15592;53.656;7.276;2022-07-29T04:28:05;1.88;;;1.20;;
28335;SDS011;15592;53.656;7.276;2022-07-29T04:30:32;2.58;;;1.40;;
28335;SDS011;15592;53.656;7.276;2022-07-29T04:32:58;1.90;;;1.33;;
28335;SDS011;15592;53.656;7.276;2022-07-29T04:35:25;1.40;;;1.30;;
28335;SDS011;15592;53.656;7.276;2022-07-29T04:37:51;1.48;;;1.38;;
28335;SDS011;15592;53.656;7.276;2022-07-29T04:40:17;1.38;;;1.27;;
28335;SDS011;15592;53.656;7.276;2022-07-29T04:42:43;2.38;;;1.40;;
28335;SDS011;15592;53.656;7.276;2022-07-29T04:45:09;1.92;;;1.30;;
28335;SDS011;15592;53.656;7.276;2022-07-29T04:47:35;1.90;;;1.60;;
28335;SDS011;15592;53.656;7.276;2022-07-29T04:50:00;2.53;;;1.48;;
28335;SDS011;15592;53.656;7.276;2022-07-29T04:52:26;1.42;;;1.20;;
28335;SDS011;15592;53.656;7.276;2022-07-29T04:54:52;1.40;;;1.30;;
28335;SDS011;15592;53.656;7.276;2022-07-29T04:57:17;2.03;;;1.40;;
28335;SDS011;15592;53.656;7.276;2022-07-29T04:59:43;1.92;;;1.25;;
28335;SDS011;15592;53.656;7.276;2022-07-29T05:02:09;1.42;;;1.33;;
28335;SDS011;15592;53.656;7.276;2022-07-29T05:04:34;2.00;;;1.60;;
28335;SDS011;15592;53.656;7.276;2022-07-29T05:07:00;1.50;;;1.40;;
28335;SDS011;15592;53.656;7.276;2022-07-29T05:09:25;1.75;;;1.30;;
28335;SDS011;15592;53.656;7.276;2022-07-29T05:11:51;2.85;;;1.70;;
28335;SDS011;15592;53.656;7.276;2022-07-29T05:14:18;3.35;;;1.70;;
28335;SDS011;15592;53.656;7.276;2022-07-29T05:16:43;1.88;;;1.55;;
28335;SDS011;15592;53.656;7.276;2022-07-29T05:19:09;1.83;;;1.50;;
28335;SDS011;15592;53.656;7.276;2022-07-29T05:21:35;2.20;;;1.60;;
28335;SDS011;15592;53.656;7.276;2022-07-29T05:24:00;2.10;;;1.50;;
28335;SDS011;15592;53.656;7.276;2022-07-29T05:26:26;1.77;;;1.50;;
28335;SDS011;15592;53.656;7.276;2022-07-29T05:28:52;3.50;;;2.38;;
28335;SDS011;15592;53.656;7.276;2022-07-29T05:31:18;3.22;;;1.83;;
28335;SDS011;15592;53.656;7.276;2022-07-29T05:33:44;2.17;;;1.75;;
28335;SDS011;15592;53.656;7.276;2022-07-29T05:36:10;2.10;;;1.40;;
28335;SDS011;15592;53.656;7.276;2022-07-29T05:38:36;1.50;;;1.40;;
28335;SDS011;15592;53.656;7.276;2022-07-29T05:41:02;1.35;;;1.25;;
28335;SDS011;15592;53.656;7.276;2022-07-29T05:43:29;2.53;;;1.60;;
28335;SDS011;15592;53.656;7.276;2022-07-29T05:45:55;3.30;;;1.70;;
28335;SDS011;15592;53.656;7.276;2022-07-29T05:48:21;1.83;;;1.58;;
28335;SDS011;15592;53.656;7.276;2022-07-29T05:50:46;2.13;;;1.67;;
28335;SDS011;15592;53.656;7.276;2022-07-29T05:53:12;3.13;;;1.73;;
28335;SDS011;15592;53.656;7.276;2022-07-29T05:55:37;2.17;;;1.65;;
28335;SDS011;15592;53.656;7.276;2022-07-29T05:58:03;3.20;;;1.85;;
28335;SDS011;15592;53.656;7.276;2022-07-29T06:00:29;2.63;;;1.85;;
28335;SDS011;15592;53.656;7.276;2022-07-29T06:02:55;2.47;;;1.75;;
28335;SDS011;15592;53.656;7.276;2022-07-29T06:05:21;2.00;;;1.58;;
28335;SDS011;15592;53.656;7.276;2022-07-29T06:07:47;3.05;;;1.65;;
28335;SDS011;15592;53.656;7.276;2022-07-29T06:10:13;2.05;;;1.50;;
28335;SDS011;15592;53.656;7.276;2022-07-29T06:12:38;1.85;;;1.50;;
28335;SDS011;15592;53.656;7.276;2022-07-29T06:15:04;3.95;;;1.63;;
28335;SDS011;15592;53.656;7.276;2022-07-29T06:17:31;1.52;;;1.40;;
28335;SDS011;15592;53.656;7.276;2022-07-29T06:19:56;3.00;;;1.67;;
28335;SDS011;15592;53.656;7.276;2022-07-29T06:22:22;1.80;;;1.50;;
28335;SDS011;15592;53.656;7.276;2022-07-29T06:24:48;2.10;;;1.50;;
28335;SDS011;15592;53.656;7.276;2022-07-29T06:27:14;1.67;;;1.55;;
28335;SDS011;15592;53.656;7.276;2022-07-29T06:29:39;2.95;;;1.73;;
28335;SDS011;15592;53.656;7.276;2022-07-29T06:32:05;3.95;;;1.80;;
28335;SDS011;15592;53.656;7.276;2022-07-29T06:34:31;2.78;;;1.73;;
28335;SDS011;15592;53.656;7.276;2022-07-29T06:36:56;3.88;;;1.90;;
28335;SDS011;15592;53.656;7.276;2022-07-29T06:39:22;2.20;;;1.48;;
28335;SDS011;15592;53.656;7.276;2022-07-29T06:41:48;4.43;;;2.10;;
28335;SDS011;15592;53.656;7.276;2022-07-29T06:44:14;3.13;;;2.03;;
28335;SDS011;15592;53.656;7.276;2022-07-29T06:46:40;2.17;;;1.63;;
28335;SDS011;15592;53.656;7.276;2022-07-29T06:49:06;3.00;;;1.92;;
28335;SDS011;15592;53.656;7.276;2022-07-29T06:51:32;4.68;;;2.33;;
28335;SDS011;15592;53.656;7.276;2022-07-29T06:53:58;2.00;;;1.80;;
28335;SDS011;15592;53.656;7.276;2022-07-29T06:56:24;3.25;;;2.03;;
28335;SDS011;15592;53.656;7.276;2022-07-29T06:58:50;2.17;;;1.92;;
28335;SDS011;15592;53.656;7.276;2022-07-29T07:01:15;2.70;;;2.00;;
28335;SDS011;15592;53.656;7.276;2022-07-29T07:03:41;3.15;;;2.03;;
28335;SDS011;15592;53.656;7.276;2022-07-29T07:06:07;3.28;;;2.10;;
28335;SDS011;15592;53.656;7.276;2022-07-29T07:08:32;2.55;;;2.00;;
28335;SDS011;15592;53.656;7.276;2022-07-29T07:10:58;2.92;;;2.40;;
28335;SDS011;15592;53.656;7.276;2022-07-29T07:13:24;7.07;;;2.65;;
28335;SDS011;15592;53.656;7.276;2022-07-29T07:15:49;4.40;;;2.50;;
28335;SDS011;15592;53.656;7.276;2022-07-29T07:18:16;4.00;;;2.30;;
28335;SDS011;15592;53.656;7.276;2022-07-29T07:20:43;4.10;;;2.33;;
28335;SDS011;15592;53.656;7.276;2022-07-29T07:23:09;3.40;;;2.15;;
28335;SDS011;15592;53.656;7.276;2022-07-29T07:25:35;3.58;;;2.20;;
28335;SDS011;15592;53.656;7.276;2022-07-29T07:28:01;4.88;;;2.53;;
28335;SDS011;15592;53.656;7.276;2022-07-29T07:30:27;4.57;;;2.78;;
28335;SDS011;15592;53.656;7.276;2022-07-29T07:32:53;3.13;;;2.38;;
28335;SDS011;15592;53.656;7.276;2022-07-29T07:35:19;3.83;;;2.70;;
28335;SDS011;15592;53.656;7.276;2022-07-29T07:37:45;2.60;;;2.38;;
28335;SDS011;15592;53.656;7.276;2022-07-29T07:40:10;4.90;;;2.67;;
28335;SDS011;15592;53.656;7.276;2022-07-29T07:42:37;3.30;;;2.30;;
28335;SDS011;15592;53.656;7.276;2022-07-29T07:45:03;3.42;;;2.33;;
28335;SDS011;15592;53.656;7.276;2022-07-29T07:47:30;6.07;;;2.85;;
28335;SDS011;15592;53.656;7.276;2022-07-29T07:49:56;3.42;;;2.47;;
28335;SDS011;15592;53.656;7.276;2022-07-29T07:52:22;3.88;;;2.58;;
28335;SDS011;15592;53.656;7.276;2022-07-29T07:54:48;5.35;;;2.85;;
28335;SDS011;15592;53.656;7.276;2022-07-29T07:57:14;4.78;;;3.00;;
28335;SDS011;15592;53.656;7.276;2022-07-29T07:59:40;4.43;;;2.70;;
28335;SDS011;15592;53.656;7.276;2022-07-29T08:02:06;4.53;;;2.83;;
28335;SDS011;15592;53.656;7.276;2022-07-29T08:04:33;7.60;;;2.92;;
28335;SDS011;15592;53.656;7.276;2022-07-29T08:06:58;4.88;;;2.60;;
28335;SDS011;15592;53.656;7.276;2022-07-29T08:09:26;3.33;;;2.40;;
28335;SDS011;15592;53.656;7.276;2022-07-29T08:11:52;4.13;;;2.50;;
28335;SDS011;15592;53.656;7.276;2022-07-29T08:14:18;5.15;;;2.47;;
28335;SDS011;15592;53.656;7.276;2022-07-29T08:16:44;5.63;;;2.78;;
28335;SDS011;15592;53.656;7.276;2022-07-29T08:19:10;3.67;;;2.80;;
28335;SDS011;15592;53.656;7.276;2022-07-29T08:21:36;5.47;;;2.85;;
28335;SDS011;15592;53.656;7.276;2022-07-29T08:24:02;3.80;;;2.63;;
28335;SDS011;15592;53.656;7.276;2022-07-29T08:26:47;5.25;;;2.97;;
28335;SDS011;15592;53.656;7.276;2022-07-29T08:29:12;7.10;;;3.20;;
28335;SDS011;15592;53.656;7.276;2022-07-29T08:31:38;5.15;;;2.72;;
28335;SDS011;15592;53.656;7.276;2022-07-29T08:34:04;4.15;;;2.72;;
28335;SDS011;15592;53.656;7.276;2022-07-29T08:36:30;10.00;;;2.53;;
28335;SDS011;15592;53.656;7.276;2022-07-29T08:38:57;4.30;;;2.75;;
28335;SDS011;15592;53.656;7.276;2022-07-29T08:41:22;4.60;;;2.60;;
28335;SDS011;15592;53.656;7.276;2022-07-29T08:43:49;5.30;;;3.00;;
28335;SDS011;15592;53.656;7.276;2022-07-29T08:46:17;4.82;;;2.72;;
28335;SDS011;15592;53.656;7.276;2022-07-29T08:48:43;5.95;;;2.92;;
28335;SDS011;15592;53.656;7.276;2022-07-29T08:51:12;3.78;;;2.65;;
28335;SDS011;15592;53.656;7.276;2022-07-29T08:53:43;3.60;;;2.28;;
28335;SDS011;15592;53.656;7.276;2022-07-29T08:56:12;4.30;;;2.60;;
28335;SDS011;15592;53.656;7.276;2022-07-29T08:58:39;4.88;;;2.45;;
28335;SDS011;15592;53.656;7.276;2022-07-29T09:01:06;3.90;;;2.70;;
28335;SDS011;15592;53.656;7.276;2022-07-29T09:03:32;4.47;;;2.75;;
28335;SDS011;15592;53.656;7.276;2022-07-29T09:06:00;4.78;;;3.00;;
28335;SDS011;15592;53.656;7.276;2022-07-29T09:08:27;6.18;;;3.22;;
28335;SDS011;15592;53.656;7.276;2022-07-29T09:10:53;5.80;;;2.55;;
28335;SDS011;15592;53.656;7.276;2022-07-29T09:13:21;4.72;;;2.97;;
28335;SDS011;15592;53.656;7.276;2022-07-29T09:15:47;5.47;;;2.70;;
28335;SDS011;15592;53.656;7.276;2022-07-29T09:18:32;4.57;;;2.67;;
28335;SDS011;15592;53.656;7.276;2022-07-29T09:21:06;4.00;;;2.80;;
28335;SDS011;15592;53.656;7.276;2022-07-29T09:26:30;5.97;;;3.40;;
28335;SDS011;15592;53.656;7.276;2022-07-29T09:28:57;12.75;;;3.40;;
28335;SDS011;15592;53.656;7.276;2022-07-29T09:31:43;5.82;;;2.80;;
28335;SDS011;15592;53.656;7.276;2022-07-29T09:34:11;6.90;;;3.15;;
28335;SDS011;15592;53.656;7.276;2022-07-29T09:36:42;4.28;;;3.30;;
28335;SDS011;15592;53.656;7.276;2022-07-29T09:39:09;4.28;;;2.80;;
28335;SDS011;15592;53.656;7.276;2022-07-29T09:44:14;5.00;;;2.70;;
28335;SDS011;15592;53.656;7.276;2022-07-29T09:46:52;6.05;;;2.85;;
28335;SDS011;15592;53.656;7.276;2022-07-29T09:49:30;3.65;;;2.35;;
28335;SDS011;15592;53.656;7.276;2022-07-29T09:52:01;4.47;;;2.47;;
28335;SDS011;15592;53.656;7.276;2022-07-29T09:54:30;4.72;;;2.85;;
28335;SDS011;15592;53.656;7.276;2022-07-29T09:57:01;3.65;;;2.70;;
28335;SDS011;15592;53.656;7.276;2022-07-29T09:59:37;3.55;;;2.78;;
28335;SDS011;15592;53.656;7.276;2022-07-29T10:02:13;3.22;;;2.42;;
28335;SDS011;15592;53.656;7.276;2022-07-29T10:04:40;6.28;;;3.20;;
28335;SDS011;15592;53.656;7.276;2022-07-29T10:07:06;6.95;;;2.75;;
28335;SDS011;15592;53.656;7.276;2022-07-29T10:09:33;4.85;;;2.70;;
28335;SDS011;15592;53.656;7.276;2022-07-29T10:12:09;6.50;;;2.53;;
28335;SDS011;15592;53.656;7.276;2022-07-29T10:14:38;5.63;;;2.60;;
28335;SDS011;15592;53.656;7.276;2022-07-29T10:17:05;5.90;;;3.08;;
28335;SDS011;15592;53.656;7.276;2022-07-29T10:19:32;4.10;;;2.80;;
28335;SDS011;15592;53.656;7.276;2022-07-29T10:21:58;4.90;;;3.20;;
28335;SDS011;15592;53.656;7.276;2022-07-29T10:24:27;5.55;;;3.05;;
28335;SDS011;15592;53.656;7.276;2022-07-29T10:26:58;6.88;;;3.25;;
28335;SDS011;15592;53.656;7.276;2022-07-29T10:29:25;4.68;;;3.30;;
28335;SDS011;15592;53.656;7.276;2022-07-29T10:34:36;6.82;;;3.47;;
28335;SDS011;15592;53.656;7.276;2022-07-29T10:37:21;5.40;;;3.15;;
28335;SDS011;15592;53.656;7.276;2022-07-29T10:40:17;5.03;;;3.15;;
28335;SDS011;15592;53.656;7.276;2022-07-29T10:43:30;5.45;;;2.95;;
28335;SDS011;15592;53.656;7.276;2022-07-29T10:46:01;6.88;;;3.28;;
28335;SDS011;15592;53.656;7.276;2022-07-29T10:48:27;5.70;;;3.20;;
28335;SDS011;15592;53.656;7.276;2022-07-29T10:53:47;8.48;;;3.63;;
28335;SDS011;15592;53.656;7.276;2022-07-29T10:56:27;5.50;;;3.13;;
28335;SDS011;15592;53.656;7.276;2022-07-29T11:01:44;6.05;;;2.85;;
28335;SDS011;15592;53.656;7.276;2022-07-29T11:04:14;5.82;;;2.80;;
28335;SDS011;15592;53.656;7.276;2022-07-29T11:09:31;3.45;;;2.55;;
28335;SDS011;15592;53.656;7.276;2022-07-29T11:11:57;4.07;;;2.78;;
28335;SDS011;15592;53.656;7.276;2022-07-29T11:17:16;5.18;;;2.70;;
28335;SDS011;15592;53.656;7.276;2022-07-29T11:19:42;6.22;;;2.67;;
28335;SDS011;15592;53.656;7.276;2022-07-29T11:22:09;3.25;;;2.60;;
28335;SDS011;15592;53.656;7.276;2022-07-29T11:24:35;4.18;;;2.53;;
28335;SDS011;15592;53.656;7.276;2022-07-29T11:27:12;4.57;;;2.85;;
28335;SDS011;15592;53.656;7.276;2022-07-29T11:29:40;4.35;;;2.67;;
28335;SDS011;15592;53.656;7.276;2022-07-29T11:32:17;3.58;;;2.55;;
28335;SDS011;15592;53.656;7.276;2022-07-29T11:34:45;2.95;;;2.20;;
28335;SDS011;15592;53.656;7.276;2022-07-29T11:37:14;4.95;;;2.45;;
28335;SDS011;15592;53.656;7.276;2022-07-29T11:39:42;5.78;;;2.70;;
28335;SDS011;15592;53.656;7.276;2022-07-29T11:44:56;4.80;;;2.60;;
28335;SDS011;15592;53.656;7.276;2022-07-29T11:47:22;4.90;;;2.78;;
28335;SDS011;15592;53.656;7.276;2022-07-29T11:49:49;4.68;;;2.70;;
28335;SDS011;15592;53.656;7.276;2022-07-29T11:52:16;3.53;;;2.60;;
28335;SDS011;15592;53.656;7.276;2022-07-29T11:54:42;5.50;;;2.70;;
28335;SDS011;15592;53.656;7.276;2022-07-29T11:57:08;6.05;;;2.83;;
28335;SDS011;15592;53.656;7.276;2022-07-29T11:59:42;6.25;;;3.00;;
28335;SDS011;15592;53.656;7.276;2022-07-29T12:02:10;5.53;;;2.83;;
28335;SDS011;15592;53.656;7.276;2022-07-29T12:04:52;6.55;;;3.08;;
28335;SDS011;15592;53.656;7.276;2022-07-29T12:07:25;5.47;;;2.85;;
28335;SDS011;15592;53.656;7.276;2022-07-29T12:09:54;4.20;;;2.58;;
28335;SDS011;15592;53.656;7.276;2022-07-29T12:12:21;4.10;;;2.72;;
28335;SDS011;15592;53.656;7.276;2022-07-29T12:14:47;6.15;;;2.80;;
28335;SDS011;15592;53.656;7.276;2022-07-29T12:17:26;6.22;;;2.70;;
28335;SDS011;15592;53.656;7.276;2022-07-29T12:19:53;6.05;;;2.90;;
28335;SDS011;15592;53.656;7.276;2022-07-29T12:24:52;5.72;;;2.80;;
28335;SDS011;15592;53.656;7.276;2022-07-29T12:27:17;3.90;;;2.50;;
28335;SDS011;15592;53.656;7.276;2022-07-29T12:29:43;4.10;;;2.38;;
28335;SDS011;15592;53.656;7.276;2022-07-29T12:32:09;4.70;;;2.60;;
28335;SDS011;15592;53.656;7.276;2022-07-29T12:34:35;4.95;;;2.60;;
28335;SDS011;15592;53.656;7.276;2022-07-29T12:37:00;4.88;;;2.60;;
28335;SDS011;15592;53.656;7.276;2022-07-29T12:39:27;6.45;;;2.30;;
28335;SDS011;15592;53.656;7.276;2022-07-29T12:41:53;5.18;;;2.20;;
28335;SDS011;15592;53.656;7.276;2022-07-29T12:44:19;4.20;;;2.30;;
28335;SDS011;15592;53.656;7.276;2022-07-29T12:46:45;3.15;;;2.30;;
28335;SDS011;15592;53.656;7.276;2022-07-29T12:49:22;6.30;;;2.63;;
28335;SDS011;15592;53.656;7.276;2022-07-29T12:51:48;5.55;;;2.67;;
28335;SDS011;15592;53.656;7.276;2022-07-29T12:54:14;4.30;;;2.75;;
28335;SDS011;15592;53.656;7.276;2022-07-29T12:56:40;6.60;;;2.58;;
28335;SDS011;15592;53.656;7.276;2022-07-29T13:01:41;4.93;;;2.22;;
28335;SDS011;15592;53.656;7.276;2022-07-29T13:04:08;3.97;;;2.70;;
28335;SDS011;15592;53.656;7.276;2022-07-29T13:06:42;5.68;;;2.88;;
28335;SDS011;15592;53.656;7.276;2022-07-29T13:09:13;3.00;;;2.35;;
28335;SDS011;15592;53.656;7.276;2022-07-29T13:14:07;4.88;;;2.40;;
28335;SDS011;15592;53.656;7.276;2022-07-29T13:16:36;5.15;;;2.33;;
28335;SDS011;15592;53.656;7.276;2022-07-29T13:19:31;3.95;;;2.50;;
28335;SDS011;15592;53.656;7.276;2022-07-29T13:22:08;3.63;;;2.47;;
28335;SDS011;15592;53.656;7.276;2022-07-29T13:24:44;3.53;;;2.20;;
28335;SDS011;15592;53.656;7.276;2022-07-29T13:27:11;4.07;;;2.55;;
28335;SDS011;15592;53.656;7.276;2022-07-29T13:29:38;4.45;;;2.72;;
28335;SDS011;15592;53.656;7.276;2022-07-29T13:32:05;3.45;;;2.38;;
28335;SDS011;15592;53.656;7.276;2022-07-29T13:34:31;3.10;;;2.00;;
28335;SDS011;15592;53.656;7.276;2022-07-29T13:36:56;3.55;;;2.45;;
28335;SDS011;15592;53.656;7.276;2022-07-29T13:39:22;6.97;;;2.65;;
28335;SDS011;15592;53.656;7.276;2022-07-29T13:41:47;4.32;;;2.42;;
28335;SDS011;15592;53.656;7.276;2022-07-29T13:44:13;6.07;;;2.40;;
28335;SDS011;15592;53.656;7.276;2022-07-29T13:49:06;5.38;;;2.38;;
28335;SDS011;15592;53.656;7.276;2022-07-29T13:51:32;5.15;;;2.47;;
28335;SDS011;15592;53.656;7.276;2022-07-29T13:53:57;3.67;;;2.33;;
28335;SDS011;15592;53.656;7.276;2022-07-29T13:56:23;9.82;;;2.80;;
28335;SDS011;15592;53.656;7.276;2022-07-29T13:58:48;8.23;;;2.97;;
28335;SDS011;15592;53.656;7.276;2022-07-29T14:01:14;3.92;;;2.45;;
28335;SDS011;15592;53.656;7.276;2022-07-29T14:03:40;2.72;;;2.40;;
28335;SDS011;15592;53.656;7.276;2022-07-29T14:06:08;4.13;;;2.58;;
28335;SDS011;15592;53.656;7.276;2022-07-29T14:08:33;5.50;;;2.40;;
28335;SDS011;15592;53.656;7.276;2022-07-29T14:10:59;3.72;;;2.20;;
28335;SDS011;15592;53.656;7.276;2022-07-29T14:13:25;3.17;;;2.22;;
28335;SDS011;15592;53.656;7.276;2022-07-29T14:15:50;2.72;;;2.22;;
28335;SDS011;15592;53.656;7.276;2022-07-29T14:18:16;3.92;;;2.45;;
28335;SDS011;15592;53.656;7.276;2022-07-29T14:20:42;4.47;;;2.20;;
28335;SDS011;15592;53.656;7.276;2022-07-29T14:23:07;4.32;;;2.42;;
28335;SDS011;15592;53.656;7.276;2022-07-29T14:25:33;3.25;;;2.20;;
28335;SDS011;15592;53.656;7.276;2022-07-29T14:27:58;2.35;;;1.85;;
28335;SDS011;15592;53.656;7.276;2022-07-29T14:30:24;3.25;;;2.30;;
28335;SDS011;15592;53.656;7.276;2022-07-29T14:32:49;5.38;;;2.60;;
28335;SDS011;15592;53.656;7.276;2022-07-29T14:35:15;5.50;;;2.95;;
28335;SDS011;15592;53.656;7.276;2022-07-29T14:37:41;3.00;;;2.58;;
28335;SDS011;15592;53.656;7.276;2022-07-29T14:40:07;2.95;;;2.22;;
28335;SDS011;15592;53.656;7.276;2022-07-29T14:42:33;4.65;;;2.83;;
28335;SDS011;15592;53.656;7.276;2022-07-29T14:44:59;2.40;;;2.17;;
28335;SDS011;15592;53.656;7.276;2022-07-29T14:47:25;3.67;;;2.17;;
28335;SDS011;15592;53.656;7.276;2022-07-29T14:49:50;3.03;;;2.20;;
28335;SDS011;15592;53.656;7.276;2022-07-29T14:52:16;4.07;;;2.85;;
28335;SDS011;15592;53.656;7.276;2022-07-29T14:54:42;3.97;;;2.70;;
28335;SDS011;15592;53.656;7.276;2022-07-29T14:57:07;4.85;;;2.70;;
28335;SDS011;15592;53.656;7.276;2022-07-29T14:59:33;3.92;;;2.58;;
28335;SDS011;15592;53.656;7.276;2022-07-29T15:01:59;2.67;;;2.28;;
28335;SDS011;15592;53.656;7.276;2022-07-29T15:04:24;3.17;;;2.58;;
28335;SDS011;15592;53.656;7.276;2022-07-29T15:06:50;2.45;;;2.03;;
28335;SDS011;15592;53.656;7.276;2022-07-29T15:09:16;3.05;;;2.13;;
28335;SDS011;15592;53.656;7.276;2022-07-29T15:11:43;2.78;;;2.00;;
28335;SDS011;15592;53.656;7.276;2022-07-29T15:14:09;2.45;;;2.00;;
28335;SDS011;15592;53.656;7.276;2022-07-29T15:16:38;2.17;;;1.98;;
28335;SDS011;15592;53.656;7.276;2022-07-29T15:19:05;2.55;;;2.05;;
28335;SDS011;15592;53.656;7.276;2022-07-29T15:21:31;3.08;;;2.28;;
28335;SDS011;15592;53.656;7.276;2022-07-29T15:23:57;2.85;;;1.80;;
28335;SDS011;15592;53.656;7.276;2022-07-29T15:26:23;2.28;;;2.00;;
28335;SDS011;15592;53.656;7.276;2022-07-29T15:28:48;3.72;;;2.08;;
28335;SDS011;15592;53.656;7.276;2022-07-29T15:31:14;2.47;;;2.20;;
28335;SDS011;15592;53.656;7.276;2022-07-29T15:33:40;3.72;;;2.33;;
28335;SDS011;15592;53.656;7.276;2022-07-29T15:36:05;2.25;;;2.00;;
28335;SDS011;15592;53.656;7.276;2022-07-29T15:38:31;3.72;;;2.40;;
28335;SDS011;15592;53.656;7.276;2022-07-29T15:40:57;2.95;;;1.92;;
28335;SDS011;15592;53.656;7.276;2022-07-29T15:43:23;3.05;;;2.08;;
28335;SDS011;15592;53.656;7.276;2022-07-29T15:45:49;2.97;;;2.15;;